sensor_id;sensor_type;location;lat;lon;timestamp;pressure;altitude;pressure_sealevel;temperature;humidity
16694;BME280;39538;52.196;9.892;2022-09-09T00:01:49;99914.50;;;14.15;100.00
16694;BME280;39538;52.196;9.892;2022-09-09T00:04:26;99920.13;;;14.12;100.00
16694;BME280;39538;52.196;9.892;2022-09-09T00:06:59;99918.44;;;14.11;100.00
16694;BME280;39538;52.196;9.892;2022-09-09T00:09:28;99924.75;;;14.10;100.00
16694;BME280;39538;52.196;9.892;2022-09-09T00:12:00;99923.09;;;14.09;100.00
16694;BME280;39538;52.196;9.892;2022-09-09T00:14:35;99922.53;;;14.05;100.00
16694;BME280;39538;52.196;9.892;2022-09-09T00:17:09;99922.53;;;14.05;100.00
16694;BME280;39538;52.196;9.892;2022-09-09T00:19:42;99922.28;;;13.99;100.00
16694;BME280;39538;52.196;9.892;2022-09-09T00:22:17;99923.25;;;13.98;100.00
16694;BME280;39538;52.196;9.892;2022-09-09T00:24:46;99916.94;;;13.99;100.00
16694;BME280;39538;52.196;9.892;2022-09-09T00:27:21;99908.06;;;13.98;100.00
16694;BME280;39538;52.196;9.892;2022-09-09T00:29:54;99916.25;;;13.97;100.00
16694;BME280;39538;52.196;9.892;2022-09-09T00:32:28;99919.31;;;14.02;100.00
16694;BME280;39538;52.196;9.892;2022-09-09T00:34:58;99915.25;;;13.98;100.00
16694;BME280;39538;52.196;9.892;2022-09-09T00:37:29;99906.41;;;13.97;100.00
16694;BME280;39538;52.196;9.892;2022-09-09T00:39:59;99915.66;;;14.03;100.00
16694;BME280;39538;52.196;9.892;2022-09-09T00:42:36;99920.97;;;14.03;100.00
16694;BME280;39538;52.196;9.892;2022-09-09T00:45:19;99921.28;;;14.00;100.00
16694;BME280;39538;52.196;9.892;2022-09-09T00:47:53;99915.66;;;14.03;100.00
16694;BME280;39538;52.196;9.892;2022-09-09T00:50:37;99915.53;;;13.95;100.00
16694;BME280;39538;52.196;9.892;2022-09-09T00:53:18;99922.19;;;13.81;100.00
16694;BME280;39538;52.196;9.892;2022-09-09T00:55:50;99912.63;;;13.78;100.00
16694;BME280;39538;52.196;9.892;2022-09-09T00:58:20;99909.56;;;13.63;100.00
16694;BME280;39538;52.196;9.892;2022-09-09T01:00:50;99902.84;;;13.59;100.00
16694;BME280;39538;52.196;9.892;2022-09-09T01:03:32;99914.06;;;13.63;100.00
16694;BME280;39538;52.196;9.892;2022-09-09T01:06:02;99913.50;;;13.69;100.00
16694;BME280;39538;52.196;9.892;2022-09-09T01:08:59;99917.28;;;13.76;100.00
16694;BME280;39538;52.196;9.892;2022-09-09T01:11:33;99911.38;;;13.73;100.00
16694;BME280;39538;52.196;9.892;2022-09-09T01:14:11;99914.59;;;13.76;100.00
16694;BME280;39538;52.196;9.892;2022-09-09T01:16:40;99917.13;;;13.68;100.00
16694;BME280;39538;52.196;9.892;2022-09-09T01:19:10;99921.94;;;13.55;100.00
16694;BME280;39538;52.196;9.892;2022-09-09T01:21:51;99927.28;;;13.55;100.00
16694;BME280;39538;52.196;9.892;2022-09-09T01:24:27;99912.66;;;13.59;100.00
16694;BME280;39538;52.196;9.892;2022-09-09T01:26:59;99913.53;;;13.59;100.00
16694;BME280;39538;52.196;9.892;2022-09-09T01:29:27;99912.09;;;13.65;100.00
16694;BME280;39538;52.196;9.892;2022-09-09T01:31:55;99903.13;;;13.66;100.00
16694;BME280;39538;52.196;9.892;2022-09-09T01:34:23;99909.84;;;13.60;100.00
16694;BME280;39538;52.196;9.892;2022-09-09T01:36:57;99899.75;;;13.54;100.00
16694;BME280;39538;52.196;9.892;2022-09-09T01:39:26;99904.25;;;13.44;100.00
16694;BME280;39538;52.196;9.892;2022-09-09T01:41:53;99896.41;;;13.42;100.00
16694;BME280;39538;52.196;9.892;2022-09-09T01:44:23;99904.25;;;13.44;100.00
16694;BME280;39538;52.196;9.892;2022-09-09T01:46:51;99897.25;;;13.33;100.00
16694;BME280;39538;52.196;9.892;2022-09-09T01:49:18;99905.09;;;13.25;100.00
16694;BME280;39538;52.196;9.892;2022-09-09T01:51:46;99906.75;;;13.26;100.00
16694;BME280;39538;52.196;9.892;2022-09-09T01:54:15;99906.25;;;13.32;100.00
16694;BME280;39538;52.196;9.892;2022-09-09T01:56:49;99909.59;;;13.34;100.00
16694;BME280;39538;52.196;9.892;2022-09-09T01:59:41;99913.78;;;13.27;100.00
16694;BME280;39538;52.196;9.892;2022-09-09T02:02:11;99917.19;;;13.29;100.00
16694;BME280;39538;52.196;9.892;2022-09-09T02:04:40;99919.56;;;13.42;100.00
16694;BME280;39538;52.196;9.892;2022-09-09T02:07:25;99916.03;;;13.51;100.00
16694;BME280;39538;52.196;9.892;2022-09-09T02:09:58;99918.16;;;13.57;100.00
16694;BME280;39538;52.196;9.892;2022-09-09T02:12:28;99910.13;;;13.67;100.00
16694;BME280;39538;52.196;9.892;2022-09-09T02:15:02;99917.00;;;13.69;100.00
16694;BME280;39538;52.196;9.892;2022-09-09T02:17:33;99921.94;;;13.64;100.00
16694;BME280;39538;52.196;9.892;2022-09-09T02:20:05;99912.50;;;13.70;100.00
16694;BME280;39538;52.196;9.892;2022-09-09T02:22:35;99912.94;;;13.65;100.00
16694;BME280;39538;52.196;9.892;2022-09-09T02:25:08;99914.19;;;13.71;100.00
16694;BME280;39538;52.196;9.892;2022-09-09T02:27:36;99916.28;;;13.77;100.00
16694;BME280;39538;52.196;9.892;2022-09-09T02:30:05;99908.56;;;13.74;100.00
16694;BME280;39538;52.196;9.892;2022-09-09T02:32:34;99898.56;;;13.86;100.00
16694;BME280;39538;52.196;9.892;2022-09-09T02:35:04;99900.50;;;13.94;100.00
16694;BME280;39538;52.196;9.892;2022-09-09T02:37:35;99901.91;;;13.98;100.00
16694;BME280;39538;52.196;9.892;2022-09-09T02:40:03;99894.59;;;14.00;100.00
16694;BME280;39538;52.196;9.892;2022-09-09T02:42:30;99907.53;;;13.95;100.00
16694;BME280;39538;52.196;9.892;2022-09-09T02:44:57;99889.84;;;13.94;100.00
16694;BME280;39538;52.196;9.892;2022-09-09T02:47:34;99888.03;;;13.94;100.00
16694;BME280;39538;52.196;9.892;2022-09-09T02:50:10;99896.28;;;14.01;100.00
16694;BME280;39538;52.196;9.892;2022-09-09T02:52:47;99905.28;;;14.00;100.00
16694;BME280;39538;52.196;9.892;2022-09-09T02:55:21;99902.75;;;13.98;100.00
16694;BME280;39538;52.196;9.892;2022-09-09T02:57:51;99906.53;;;13.96;100.00
16694;BME280;39538;52.196;9.892;2022-09-09T03:00:23;99898.28;;;13.99;100.00
16694;BME280;39538;52.196;9.892;2022-09-09T03:02:52;99905.13;;;14.01;100.00
16694;BME280;39538;52.196;9.892;2022-09-09T03:05:19;99905.66;;;14.05;100.00
16694;BME280;39538;52.196;9.892;2022-09-09T03:07:47;99898.50;;;14.05;100.00
16694;BME280;39538;52.196;9.892;2022-09-09T03:10:15;99904.41;;;14.09;100.00
16694;BME280;39538;52.196;9.892;2022-09-09T03:12:41;99903.25;;;14.11;100.00
16694;BME280;39538;52.196;9.892;2022-09-09T03:15:08;99911.97;;;14.13;100.00
16694;BME280;39538;52.196;9.892;2022-09-09T03:17:36;99912.81;;;14.14;100.00
16694;BME280;39538;52.196;9.892;2022-09-09T03:20:04;99917.72;;;14.19;100.00
16694;BME280;39538;52.196;9.892;2022-09-09T03:22:31;99912.94;;;14.22;100.00
16694;BME280;39538;52.196;9.892;2022-09-09T03:24:58;99907.84;;;14.29;100.00
16694;BME280;39538;52.196;9.892;2022-09-09T03:27:24;99906.84;;;14.30;100.00
16694;BME280;39538;52.196;9.892;2022-09-09T03:29:51;99908.94;;;14.36;100.00
16694;BME280;39538;52.196;9.892;2022-09-09T03:32:18;99896.13;;;14.40;100.00
16694;BME280;39538;52.196;9.892;2022-09-09T03:34:47;99897.81;;;14.41;100.00
16694;BME280;39538;52.196;9.892;2022-09-09T03:37:16;99899.19;;;14.45;100.00
16694;BME280;39538;52.196;9.892;2022-09-09T03:39:43;99906.34;;;14.44;100.00
16694;BME280;39538;52.196;9.892;2022-09-09T03:42:12;99902.84;;;14.44;100.00
16694;BME280;39538;52.196;9.892;2022-09-09T03:44:39;99903.69;;;14.44;100.00
16694;BME280;39538;52.196;9.892;2022-09-09T03:47:06;99895.81;;;14.43;100.00
16694;BME280;39538;52.196;9.892;2022-09-09T03:49:32;99896.69;;;14.43;100.00
16694;BME280;39538;52.196;9.892;2022-09-09T03:51:59;99893.13;;;14.43;100.00
16694;BME280;39538;52.196;9.892;2022-09-09T03:54:27;99894.53;;;14.47;100.00
16694;BME280;39538;52.196;9.892;2022-09-09T03:56:53;99901.41;;;14.49;100.00
16694;BME280;39538;52.196;9.892;2022-09-09T03:59:20;99899.00;;;14.56;100.00
16694;BME280;39538;52.196;9.892;2022-09-09T04:01:48;99897.34;;;14.55;100.00
16694;BME280;39538;52.196;9.892;2022-09-09T04:04:14;99886.66;;;14.55;100.00
16694;BME280;39538;52.196;9.892;2022-09-09T04:06:40;99897.72;;;14.60;100.00
16694;BME280;39538;52.196;9.892;2022-09-09T04:09:07;99895.91;;;14.61;100.00
16694;BME280;39538;52.196;9.892;2022-09-09T04:11:35;99898.44;;;14.62;100.00
16694;BME280;39538;52.196;9.892;2022-09-09T04:14:02;99900.94;;;14.64;100.00
16694;BME280;39538;52.196;9.892;2022-09-09T04:16:29;99905.44;;;14.63;100.00
16694;BME280;39538;52.196;9.892;2022-09-09T04:18:55;99904.75;;;14.61;100.00
16694;BME280;39538;52.196;9.892;2022-09-09T04:21:23;99906.13;;;14.65;100.00
16694;BME280;39538;52.196;9.892;2022-09-09T04:23:49;99910.50;;;14.66;100.00
16694;BME280;39538;52.196;9.892;2022-09-09T04:26:16;99908.66;;;14.67;100.00
16694;BME280;39538;52.196;9.892;2022-09-09T04:28:44;99914.69;;;14.69;100.00
16694;BME280;39538;52.196;9.892;2022-09-09T04:31:15;99905.81;;;14.68;100.00
16694;BME280;39538;52.196;9.892;2022-09-09T04:33:42;99905.81;;;14.68;100.00
16694;BME280;39538;52.196;9.892;2022-09-09T04:36:09;99904.84;;;14.69;100.00
16694;BME280;39538;52.196;9.892;2022-09-09T04:38:35;99911.72;;;14.72;100.00
16694;BME280;39538;52.196;9.892;2022-09-09T04:41:02;99914.53;;;14.70;100.00
16694;BME280;39538;52.196;9.892;2022-09-09T04:43:29;99913.69;;;14.70;100.00
16694;BME280;39538;52.196;9.892;2022-09-09T04:45:57;99914.25;;;14.73;100.00
16694;BME280;39538;52.196;9.892;2022-09-09T04:48:24;99903.56;;;14.73;100.00
16694;BME280;39538;52.196;9.892;2022-09-09T04:50:55;99911.41;;;14.75;100.00
16694;BME280;39538;52.196;9.892;2022-09-09T04:53:22;99915.59;;;14.78;100.00
16694;BME280;39538;52.196;9.892;2022-09-09T04:55:48;99919.16;;;14.78;100.00
16694;BME280;39538;52.196;9.892;2022-09-09T04:58:15;99917.00;;;14.82;100.00
16694;BME280;39538;52.196;9.892;2022-09-09T05:00:42;99913.03;;;14.86;100.00
16694;BME280;39538;52.196;9.892;2022-09-09T05:03:10;99919.78;;;14.90;100.00
16694;BME280;39538;52.196;9.892;2022-09-09T05:05:37;99918.91;;;14.89;100.00
16694;BME280;39538;52.196;9.892;2022-09-09T05:08:05;99916.47;;;14.96;100.00
16694;BME280;39538;52.196;9.892;2022-09-09T05:10:32;99920.47;;;14.92;100.00
16694;BME280;39538;52.196;9.892;2022-09-09T05:12:59;99919.06;;;14.88;100.00
16694;BME280;39538;52.196;9.892;2022-09-09T05:15:26;99929.78;;;14.88;100.00
16694;BME280;39538;52.196;9.892;2022-09-09T05:17:52;99923.97;;;14.92;100.00
16694;BME280;39538;52.196;9.892;2022-09-09T05:20:20;99921.13;;;14.94;100.00
16694;BME280;39538;52.196;9.892;2022-09-09T05:22:46;99925.81;;;14.92;100.00
16694;BME280;39538;52.196;9.892;2022-09-09T05:25:13;99923.72;;;14.86;100.00
16694;BME280;39538;52.196;9.892;2022-09-09T05:27:39;99917.38;;;14.87;100.00
16694;BME280;39538;52.196;9.892;2022-09-09T05:30:07;99918.06;;;14.89;100.00
16694;BME280;39538;52.196;9.892;2022-09-09T05:32:33;99922.03;;;14.85;100.00
16694;BME280;39538;52.196;9.892;2022-09-09T05:35:00;99913.56;;;14.89;100.00
16694;BME280;39538;52.196;9.892;2022-09-09T05:37:28;99916.66;;;14.94;100.00
16694;BME280;39538;52.196;9.892;2022-09-09T05:39:55;99921.22;;;15.02;100.00
16694;BME280;39538;52.196;9.892;2022-09-09T05:42:21;99923.22;;;15.00;100.00
16694;BME280;39538;52.196;9.892;2022-09-09T05:44:48;99919.06;;;15.06;100.00
16694;BME280;39538;52.196;9.892;2022-09-09T05:47:16;99928.66;;;15.08;100.00
16694;BME280;39538;52.196;9.892;2022-09-09T05:49:42;99927.19;;;15.14;100.00
16694;BME280;39538;52.196;9.892;2022-09-09T05:52:09;99934.44;;;15.22;100.00
16694;BME280;39538;52.196;9.892;2022-09-09T05:54:37;99930.78;;;15.23;100.00
16694;BME280;39538;52.196;9.892;2022-09-09T05:57:04;99939.19;;;15.28;100.00
16694;BME280;39538;52.196;9.892;2022-09-09T05:59:31;99936.75;;;15.34;100.00
16694;BME280;39538;52.196;9.892;2022-09-09T06:01:57;99931.53;;;15.33;100.00
16694;BME280;39538;52.196;9.892;2022-09-09T06:04:24;99939.66;;;15.41;100.00
16694;BME280;39538;52.196;9.892;2022-09-09T06:06:50;99929.69;;;15.51;100.00
16694;BME280;39538;52.196;9.892;2022-09-09T06:09:17;99942.47;;;15.57;100.00
16694;BME280;39538;52.196;9.892;2022-09-09T06:11:45;99942.06;;;15.52;98.78
16694;BME280;39538;52.196;9.892;2022-09-09T06:14:12;99946.94;;;15.57;98.33
16694;BME280;39538;52.196;9.892;2022-09-09T06:16:38;99954.22;;;15.65;98.05
16694;BME280;39538;52.196;9.892;2022-09-09T06:19:07;99949.03;;;15.63;97.01
16694;BME280;39538;52.196;9.892;2022-09-09T06:21:35;99948.97;;;15.73;97.47
16694;BME280;39538;52.196;9.892;2022-09-09T06:24:02;99946.25;;;15.91;98.61
16694;BME280;39538;52.196;9.892;2022-09-09T06:26:30;99941.53;;;16.11;98.99
16694;BME280;39538;52.196;9.892;2022-09-09T06:28:59;99947.53;;;16.39;97.08
16694;BME280;39538;52.196;9.892;2022-09-09T06:31:29;99942.13;;;16.73;95.53
16694;BME280;39538;52.196;9.892;2022-09-09T06:33:57;99944.63;;;17.17;94.17
16694;BME280;39538;52.196;9.892;2022-09-09T06:36:25;99942.19;;;17.48;90.81
16694;BME280;39538;52.196;9.892;2022-09-09T06:38:52;99937.63;;;17.74;88.47
16694;BME280;39538;52.196;9.892;2022-09-09T06:41:22;99941.66;;;18.02;87.91
16694;BME280;39538;52.196;9.892;2022-09-09T06:43:49;99932.72;;;18.18;86.58
16694;BME280;39538;52.196;9.892;2022-09-09T06:46:18;99938.88;;;18.35;86.05
16694;BME280;39538;52.196;9.892;2022-09-09T06:48:45;99947.09;;;18.33;83.58
16694;BME280;39538;52.196;9.892;2022-09-09T06:51:14;99942.38;;;18.44;83.54
16694;BME280;39538;52.196;9.892;2022-09-09T06:53:43;99939.34;;;18.47;82.78
16694;BME280;39538;52.196;9.892;2022-09-09T06:56:21;99930.03;;;18.66;80.75
16694;BME280;39538;52.196;9.892;2022-09-09T06:58:49;99934.78;;;19.18;82.87
16694;BME280;39538;52.196;9.892;2022-09-09T07:01:19;99939.72;;;19.61;81.53
16694;BME280;39538;52.196;9.892;2022-09-09T07:03:47;99938.31;;;19.88;78.24
16694;BME280;39538;52.196;9.892;2022-09-09T07:06:16;99947.16;;;20.11;76.83
16694;BME280;39538;52.196;9.892;2022-09-09T07:08:43;99947.78;;;19.84;72.96
16694;BME280;39538;52.196;9.892;2022-09-09T07:11:10;99945.44;;;19.57;75.21
16694;BME280;39538;52.196;9.892;2022-09-09T07:13:37;99950.28;;;19.62;76.19
16694;BME280;39538;52.196;9.892;2022-09-09T07:16:04;99940.59;;;19.76;75.73
16694;BME280;39538;52.196;9.892;2022-09-09T07:18:32;99958.09;;;19.95;74.88
16694;BME280;39538;52.196;9.892;2022-09-09T07:21:00;99958.78;;;19.74;73.67
16694;BME280;39538;52.196;9.892;2022-09-09T07:23:27;99954.91;;;19.53;72.24
16694;BME280;39538;52.196;9.892;2022-09-09T07:25:54;99960.66;;;19.73;75.47
16694;BME280;39538;52.196;9.892;2022-09-09T07:28:21;99956.31;;;19.87;73.49
16694;BME280;39538;52.196;9.892;2022-09-09T07:30:53;99957.53;;;19.85;72.76
16694;BME280;39538;52.196;9.892;2022-09-09T07:33:20;99958.78;;;20.27;73.36
16694;BME280;39538;52.196;9.892;2022-09-09T07:35:48;99952.41;;;20.57;71.28
16694;BME280;39538;52.196;9.892;2022-09-09T07:38:14;99955.00;;;20.66;70.39
16694;BME280;39538;52.196;9.892;2022-09-09T07:40:41;99964.50;;;20.61;67.17
16694;BME280;39538;52.196;9.892;2022-09-09T07:43:08;99959.09;;;20.61;70.29
16694;BME280;39538;52.196;9.892;2022-09-09T07:45:36;99962.03;;;20.96;69.77
16694;BME280;39538;52.196;9.892;2022-09-09T07:48:03;99959.09;;;21.34;69.89
16694;BME280;39538;52.196;9.892;2022-09-09T07:50:30;99960.50;;;21.95;69.25
16694;BME280;39538;52.196;9.892;2022-09-09T07:52:58;99971.66;;;22.41;66.31
16694;BME280;39538;52.196;9.892;2022-09-09T07:55:24;99974.31;;;22.35;63.02
16694;BME280;39538;52.196;9.892;2022-09-09T07:57:52;99978.66;;;22.64;65.36
16694;BME280;39538;52.196;9.892;2022-09-09T08:00:19;99975.25;;;21.92;62.42
16694;BME280;39538;52.196;9.892;2022-09-09T08:02:47;99976.63;;;21.60;64.79
16694;BME280;39538;52.196;9.892;2022-09-09T08:05:14;99970.38;;;21.01;64.91
16694;BME280;39538;52.196;9.892;2022-09-09T08:07:41;99977.41;;;20.66;68.34
16694;BME280;39538;52.196;9.892;2022-09-09T08:10:10;99979.47;;;20.64;68.82
16694;BME280;39538;52.196;9.892;2022-09-09T08:12:39;99980.72;;;20.24;69.16
16694;BME280;39538;52.196;9.892;2022-09-09T08:15:06;99978.78;;;19.79;70.16
16694;BME280;39538;52.196;9.892;2022-09-09T08:17:33;99974.97;;;20.27;71.06
16694;BME280;39538;52.196;9.892;2022-09-09T08:19:59;99980.91;;;20.22;69.05
16694;BME280;39538;52.196;9.892;2022-09-09T08:22:30;99972.16;;;20.35;70.47
16694;BME280;39538;52.196;9.892;2022-09-09T08:24:56;99980.19;;;20.43;69.83
16694;BME280;39538;52.196;9.892;2022-09-09T08:27:24;99983.63;;;20.67;67.98
16694;BME280;39538;52.196;9.892;2022-09-09T08:29:51;99981.63;;;20.16;68.39
16694;BME280;39538;52.196;9.892;2022-09-09T08:32:18;99986.63;;;20.04;71.17
16694;BME280;39538;52.196;9.892;2022-09-09T08:34:45;99978.44;;;19.97;70.42
16694;BME280;39538;52.196;9.892;2022-09-09T08:37:11;99977.84;;;19.64;70.53
16694;BME280;39538;52.196;9.892;2022-09-09T08:39:38;99984.34;;;19.78;71.01
16694;BME280;39538;52.196;9.892;2022-09-09T08:42:17;99983.09;;;20.04;71.95
16694;BME280;39538;52.196;9.892;2022-09-09T08:45:04;99981.78;;;19.99;71.48
16694;BME280;39538;52.196;9.892;2022-09-09T08:47:43;99989.38;;;20.93;72.41
16694;BME280;39538;52.196;9.892;2022-09-09T08:50:19;99986.34;;;22.04;66.82
16694;BME280;39538;52.196;9.892;2022-09-09T08:52:54;99993.09;;;22.78;61.54
16694;BME280;39538;52.196;9.892;2022-09-09T08:55:26;99993.00;;;24.07;58.69
16694;BME280;39538;52.196;9.892;2022-09-09T08:57:57;99997.72;;;25.17;56.97
16694;BME280;39538;52.196;9.892;2022-09-09T09:00:32;100003.53;;;25.65;51.75
16694;BME280;39538;52.196;9.892;2022-09-09T09:03:07;100013.44;;;25.53;51.83
16694;BME280;39538;52.196;9.892;2022-09-09T09:05:37;99995.22;;;25.92;51.76
16694;BME280;39538;52.196;9.892;2022-09-09T09:08:17;100000.88;;;24.69;52.10
16694;BME280;39538;52.196;9.892;2022-09-09T09:10:50;99996.66;;;24.66;55.67
16694;BME280;39538;52.196;9.892;2022-09-09T09:13:19;100004.13;;;24.84;54.00
16694;BME280;39538;52.196;9.892;2022-09-09T09:15:52;100000.47;;;24.38;53.71
16694;BME280;39538;52.196;9.892;2022-09-09T09:18:20;100006.34;;;24.09;56.16
16694;BME280;39538;52.196;9.892;2022-09-09T09:20:51;99996.31;;;24.29;55.08
16694;BME280;39538;52.196;9.892;2022-09-09T09:23:22;100006.91;;;25.61;53.75
16694;BME280;39538;52.196;9.892;2022-09-09T09:25:52;100007.31;;;26.40;50.62
16694;BME280;39538;52.196;9.892;2022-09-09T09:28:24;100000.03;;;25.58;49.36
16694;BME280;39538;52.196;9.892;2022-09-09T09:30:56;99999.22;;;24.41;54.09
16694;BME280;39538;52.196;9.892;2022-09-09T09:33:26;99999.63;;;25.55;53.12
16694;BME280;39538;52.196;9.892;2022-09-09T09:35:54;100001.63;;;25.66;51.50
16694;BME280;39538;52.196;9.892;2022-09-09T09:38:23;100001.69;;;24.76;52.39
16694;BME280;39538;52.196;9.892;2022-09-09T09:40:51;99987.97;;;23.71;54.37
16694;BME280;39538;52.196;9.892;2022-09-09T09:43:21;99996.25;;;23.49;55.18
16694;BME280;39538;52.196;9.892;2022-09-09T09:45:50;99999.41;;;23.73;55.92
16694;BME280;39538;52.196;9.892;2022-09-09T09:48:17;99987.78;;;23.79;56.60
16694;BME280;39538;52.196;9.892;2022-09-09T09:50:49;99988.41;;;24.08;53.95
16694;BME280;39538;52.196;9.892;2022-09-09T09:53:21;99988.28;;;24.81;55.42
16694;BME280;39538;52.196;9.892;2022-09-09T09:55:55;99981.06;;;25.07;52.87
16694;BME280;39538;52.196;9.892;2022-09-09T09:58:25;99986.47;;;24.62;52.14
16694;BME280;39538;52.196;9.892;2022-09-09T10:00:52;99992.38;;;24.12;54.23
16694;BME280;39538;52.196;9.892;2022-09-09T10:03:24;99983.41;;;23.91;55.10
16694;BME280;39538;52.196;9.892;2022-09-09T10:05:52;99981.25;;;23.33;55.78
16694;BME280;39538;52.196;9.892;2022-09-09T10:08:18;99982.66;;;23.16;56.37
16694;BME280;39538;52.196;9.892;2022-09-09T10:10:52;99982.22;;;23.06;57.01
16694;BME280;39538;52.196;9.892;2022-09-09T10:13:29;99980.38;;;22.37;58.72
16694;BME280;39538;52.196;9.892;2022-09-09T10:16:09;99972.34;;;22.50;60.48
16694;BME280;39538;52.196;9.892;2022-09-09T10:18:51;99972.13;;;22.51;61.46
16694;BME280;39538;52.196;9.892;2022-09-09T10:21:31;99969.25;;;21.97;59.70
16694;BME280;39538;52.196;9.892;2022-09-09T10:24:17;99972.31;;;22.15;60.99
16694;BME280;39538;52.196;9.892;2022-09-09T10:26:53;99967.63;;;22.30;60.26
16694;BME280;39538;52.196;9.892;2022-09-09T10:29:45;99975.78;;;23.13;60.90
16694;BME280;39538;52.196;9.892;2022-09-09T10:32:33;99972.75;;;24.36;54.00
16694;BME280;39538;52.196;9.892;2022-09-09T10:35:10;99972.75;;;25.01;51.88
16694;BME280;39538;52.196;9.892;2022-09-09T10:37:48;99974.59;;;24.56;49.39
16694;BME280;39538;52.196;9.892;2022-09-09T10:40:32;99965.47;;;23.64;53.14
16694;BME280;39538;52.196;9.892;2022-09-09T10:43:04;99968.97;;;24.44;51.68
16694;BME280;39538;52.196;9.892;2022-09-09T10:45:41;99967.03;;;24.71;48.04
16694;BME280;39538;52.196;9.892;2022-09-09T10:51:23;99967.16;;;26.60;44.49
16694;BME280;39538;52.196;9.892;2022-09-09T10:54:03;99972.44;;;25.55;47.00
16694;BME280;39538;52.196;9.892;2022-09-09T10:56:33;99967.06;;;24.45;47.02
16694;BME280;39538;52.196;9.892;2022-09-09T10:59:02;99969.00;;;23.71;49.82
16694;BME280;39538;52.196;9.892;2022-09-09T11:01:43;99980.75;;;23.03;52.90
16694;BME280;39538;52.196;9.892;2022-09-09T11:04:13;99965.91;;;22.51;53.14
16694;BME280;39538;52.196;9.892;2022-09-09T11:06:46;99960.16;;;21.76;57.04
16694;BME280;39538;52.196;9.892;2022-09-09T11:09:19;99966.31;;;21.70;58.31
16694;BME280;39538;52.196;9.892;2022-09-09T11:11:51;99964.81;;;21.61;59.11
16694;BME280;39538;52.196;9.892;2022-09-09T11:14:22;99971.28;;;21.66;59.74
16694;BME280;39538;52.196;9.892;2022-09-09T11:16:56;99984.38;;;21.26;58.53
16694;BME280;39538;52.196;9.892;2022-09-09T11:19:27;99976.38;;;20.82;60.08
16694;BME280;39538;52.196;9.892;2022-09-09T11:21:59;99981.38;;;20.85;60.73
16694;BME280;39538;52.196;9.892;2022-09-09T11:24:29;99979.25;;;20.80;61.49
16694;BME280;39538;52.196;9.892;2022-09-09T11:27:00;99984.19;;;20.92;62.88
16694;BME280;39538;52.196;9.892;2022-09-09T11:29:42;99977.75;;;20.93;61.73
16694;BME280;39538;52.196;9.892;2022-09-09T11:32:25;99992.91;;;20.79;62.46
16694;BME280;39538;52.196;9.892;2022-09-09T11:34:57;99992.47;;;20.60;63.47
16694;BME280;39538;52.196;9.892;2022-09-09T11:37:42;99994.34;;;20.60;63.44
16694;BME280;39538;52.196;9.892;2022-09-09T11:40:19;99995.31;;;20.14;63.89
16694;BME280;39538;52.196;9.892;2022-09-09T11:42:46;99990.09;;;20.28;67.07
16694;BME280;39538;52.196;9.892;2022-09-09T11:45:23;100005.19;;;20.52;67.85
16694;BME280;39538;52.196;9.892;2022-09-09T11:47:55;100000.09;;;20.57;67.73
16694;BME280;39538;52.196;9.892;2022-09-09T11:50:31;99998.59;;;20.54;67.39
16694;BME280;39538;52.196;9.892;2022-09-09T11:53:18;99999.28;;;20.56;67.52
16694;BME280;39538;52.196;9.892;2022-09-09T11:55:48;99994.97;;;20.47;68.49
16694;BME280;39538;52.196;9.892;2022-09-09T11:58:25;99994.69;;;20.42;69.11
16694;BME280;39538;52.196;9.892;2022-09-09T12:00:52;99997.28;;;20.35;69.73
16694;BME280;39538;52.196;9.892;2022-09-09T12:03:38;100001.25;;;20.25;70.06
16694;BME280;39538;52.196;9.892;2022-09-09T12:06:13;99999.66;;;20.15;69.88
16694;BME280;39538;52.196;9.892;2022-09-09T12:08:45;99999.44;;;20.02;70.89
16694;BME280;39538;52.196;9.892;2022-09-09T12:11:24;100000.97;;;20.05;70.71
16694;BME280;39538;52.196;9.892;2022-09-09T12:13:55;99996.41;;;20.05;70.84
16694;BME280;39538;52.196;9.892;2022-09-09T12:16:30;99983.59;;;20.07;71.01
16694;BME280;39538;52.196;9.892;2022-09-09T12:19:15;99981.09;;;19.59;69.75
16694;BME280;39538;52.196;9.892;2022-09-09T12:21:48;99984.63;;;19.60;70.94
16694;BME280;39538;52.196;9.892;2022-09-09T12:24:25;99977.41;;;19.61;71.84
16694;BME280;39538;52.196;9.892;2022-09-09T12:26:58;99977.94;;;19.56;72.61
16694;BME280;39538;52.196;9.892;2022-09-09T12:29:29;99979.50;;;19.73;72.45
16694;BME280;39538;52.196;9.892;2022-09-09T12:32:02;99976.56;;;19.83;72.54
16694;BME280;39538;52.196;9.892;2022-09-09T12:34:38;99973.44;;;19.94;72.08
16694;BME280;39538;52.196;9.892;2022-09-09T12:37:12;99975.41;;;20.00;72.13
16694;BME280;39538;52.196;9.892;2022-09-09T12:39:45;99975.69;;;20.06;71.72
16694;BME280;39538;52.196;9.892;2022-09-09T12:42:17;99976.13;;;20.09;71.72
16694;BME280;39538;52.196;9.892;2022-09-09T12:44:51;99967.03;;;20.10;71.43
16694;BME280;39538;52.196;9.892;2022-09-09T12:47:20;99978.19;;;20.07;71.27
16694;BME280;39538;52.196;9.892;2022-09-09T12:49:48;99975.69;;;20.06;71.59
16694;BME280;39538;52.196;9.892;2022-09-09T12:52:22;99981.25;;;20.04;71.85
16694;BME280;39538;52.196;9.892;2022-09-09T12:54:51;99987.66;;;20.03;71.98
16694;BME280;39538;52.196;9.892;2022-09-09T12:57:19;99984.97;;;20.03;72.66
16694;BME280;39538;52.196;9.892;2022-09-09T12:59:48;99986.84;;;20.03;72.63
16694;BME280;39538;52.196;9.892;2022-09-09T13:02:20;99986.63;;;20.04;73.07
16694;BME280;39538;52.196;9.892;2022-09-09T13:04:47;99985.28;;;19.62;70.39
16694;BME280;39538;52.196;9.892;2022-09-09T13:07:16;99981.47;;;19.56;71.09
16694;BME280;39538;52.196;9.892;2022-09-09T13:09:43;99979.97;;;19.54;70.65
16694;BME280;39538;52.196;9.892;2022-09-09T13:12:14;99980.63;;;19.56;69.04
16694;BME280;39538;52.196;9.892;2022-09-09T13:14:43;99982.47;;;19.55;68.00
16694;BME280;39538;52.196;9.892;2022-09-09T13:17:18;99984.22;;;19.71;69.29